sensor_id;sensor_type;location;lat;lon;timestamp;pressure;altitude;pressure_sealevel;temperature;humidity
31225;BME280;17847;31.524;74.366;2023-10-13T00:02:09;98671.72;;;23.42;nan
31225;BME280;17847;31.524;74.366;2023-10-13T00:04:39;98670.91;;;23.41;nan
31225;BME280;17847;31.524;74.366;2023-10-13T00:07:11;98671.75;;;23.37;nan
31225;BME280;17847;31.524;74.366;2023-10-13T00:09:40;98670.41;;;23.44;nan
31225;BME280;17847;31.524;74.366;2023-10-13T00:12:09;98676.03;;;23.43;nan
31225;BME280;17847;31.524;74.366;2023-10-13T00:14:42;98676.31;;;23.46;nan
31225;BME280;17847;31.524;74.366;2023-10-13T00:17:14;98680.63;;;23.42;nan
31225;BME280;17847;31.524;74.366;2023-10-13T00:19:53;98685.28;;;23.37;nan
31225;BME280;17847;31.524;74.366;2023-10-13T00:22:22;98686.63;;;23.24;nan
31225;BME280;17847;31.524;74.366;2023-10-13T00:24:53;98685.00;;;23.33;nan
31225;BME280;17847;31.524;74.366;2023-10-13T00:27:32;98690.69;;;23.32;nan
31225;BME280;17847;31.524;74.366;2023-10-13T00:30:06;98691.81;;;23.10;nan
31225;BME280;17847;31.524;74.366;2023-10-13T00:32:44;98687.25;;;23.01;nan
31225;BME280;17847;31.524;74.366;2023-10-13T00:35:15;98692.34;;;23.22;nan
31225;BME280;17847;31.524;74.366;2023-10-13T00:37:58;98693.44;;;23.11;nan
31225;BME280;17847;31.524;74.366;2023-10-13T00:40:33;98697.44;;;23.24;nan
31225;BME280;17847;31.524;74.366;2023-10-13T00:43:03;98698.81;;;23.26;nan
31225;BME280;17847;31.524;74.366;2023-10-13T00:45:58;98695.78;;;23.38;nan
31225;BME280;17847;31.524;74.366;2023-10-13T00:48:36;98689.03;;;23.41;nan
31225;BME280;17847;31.524;74.366;2023-10-13T00:51:12;98702.06;;;23.18;nan
31225;BME280;17847;31.524;74.366;2023-10-13T00:54:03;98700.44;;;23.17;nan
31225;BME280;17847;31.524;74.366;2023-10-13T00:56:38;98703.97;;;23.13;nan
31225;BME280;17847;31.524;74.366;2023-10-13T00:59:28;98698.00;;;23.26;nan
31225;BME280;17847;31.524;74.366;2023-10-13T01:01:58;98697.75;;;23.17;nan
31225;BME280;17847;31.524;74.366;2023-10-13T01:04:30;98697.72;;;23.27;nan
31225;BME280;17847;31.524;74.366;2023-10-13T01:07:00;98705.59;;;23.09;nan
31225;BME280;17847;31.524;74.366;2023-10-13T01:09:29;98708.28;;;23.19;nan
31225;BME280;17847;31.524;74.366;2023-10-13T01:12:09;98707.72;;;23.27;nan
31225;BME280;17847;31.524;74.366;2023-10-13T01:14:41;98706.34;;;23.29;nan
31225;BME280;17847;31.524;74.366;2023-10-13T01:17:13;98710.69;;;23.36;nan
31225;BME280;17847;31.524;74.366;2023-10-13T01:19:43;98709.31;;;23.33;nan
31225;BME280;17847;31.524;74.366;2023-10-13T01:22:14;98706.41;;;23.14;nan
31225;BME280;17847;31.524;74.366;2023-10-13T01:24:43;98716.91;;;23.21;nan
31225;BME280;17847;31.524;74.366;2023-10-13T01:27:14;98720.44;;;23.21;nan
31225;BME280;17847;31.524;74.366;2023-10-13T01:29:49;98723.66;;;23.44;nan
31225;BME280;17847;31.524;74.366;2023-10-13T01:32:23;98723.38;;;23.35;nan
31225;BME280;17847;31.524;74.366;2023-10-13T01:34:53;98726.66;;;23.12;nan
31225;BME280;17847;31.524;74.366;2023-10-13T01:37:24;98726.09;;;23.35;nan
31225;BME280;17847;31.524;74.366;2023-10-13T01:39:54;98731.50;;;23.30;nan
31225;BME280;17847;31.524;74.366;2023-10-13T01:42:23;98741.22;;;23.31;nan
31225;BME280;17847;31.524;74.366;2023-10-13T01:44:54;98746.09;;;23.44;nan
31225;BME280;17847;31.524;74.366;2023-10-13T01:47:33;98756.00;;;23.64;nan
31225;BME280;17847;31.524;74.366;2023-10-13T01:50:03;98752.78;;;23.72;nan
31225;BME280;17847;31.524;74.366;2023-10-13T01:52:44;98759.53;;;23.64;nan
31225;BME280;17847;31.524;74.366;2023-10-13T01:55:13;98758.41;;;23.81;nan
31225;BME280;17847;31.524;74.366;2023-10-13T01:57:43;98759.47;;;23.85;nan
31225;BME280;17847;31.524;74.366;2023-10-13T02:00:16;98763.75;;;23.91;nan
31225;BME280;17847;31.524;74.366;2023-10-13T02:02:49;98758.88;;;23.93;nan
31225;BME280;17847;31.524;74.366;2023-10-13T02:05:20;98771.38;;;23.84;nan
31225;BME280;17847;31.524;74.366;2023-10-13T02:07:49;98776.09;;;24.12;nan
31225;BME280;17847;31.524;74.366;2023-10-13T02:10:18;98769.91;;;24.06;nan
31225;BME280;17847;31.524;74.366;2023-10-13T02:12:52;98769.25;;;24.30;nan
31225;BME280;17847;31.524;74.366;2023-10-13T02:15:24;98774.72;;;24.25;nan
31225;BME280;17847;31.524;74.366;2023-10-13T02:17:55;98780.34;;;24.38;nan
31225;BME280;17847;31.524;74.366;2023-10-13T02:20:24;98781.66;;;24.41;nan
31225;BME280;17847;31.524;74.366;2023-10-13T02:23:00;98776.44;;;24.54;nan
31225;BME280;17847;31.524;74.366;2023-10-13T02:25:29;98782.56;;;24.65;nan
31225;BME280;17847;31.524;74.366;2023-10-13T02:28:12;98788.69;;;24.86;nan
31225;BME280;17847;31.524;74.366;2023-10-13T02:30:50;98793.28;;;24.46;nan
31225;BME280;17847;31.524;74.366;2023-10-13T02:33:19;98810.41;;;24.32;nan
31225;BME280;17847;31.524;74.366;2023-10-13T02:35:59;98805.63;;;24.63;nan
31225;BME280;17847;31.524;74.366;2023-10-13T02:38:41;98815.88;;;24.66;nan
31225;BME280;17847;31.524;74.366;2023-10-13T02:41:19;98830.59;;;24.98;nan
31225;BME280;17847;31.524;74.366;2023-10-13T02:43:57;98828.41;;;25.00;nan
31225;BME280;17847;31.524;74.366;2023-10-13T02:46:27;98836.00;;;24.98;nan
31225;BME280;17847;31.524;74.366;2023-10-13T02:48:58;98833.78;;;25.05;nan
31225;BME280;17847;31.524;74.366;2023-10-13T02:51:31;98832.13;;;25.10;nan
31225;BME280;17847;31.524;74.366;2023-10-13T02:54:04;98836.00;;;25.32;nan
31225;BME280;17847;31.524;74.366;2023-10-13T02:56:47;98846.47;;;25.44;nan
31225;BME280;17847;31.524;74.366;2023-10-13T02:59:33;98844.16;;;25.61;nan
31225;BME280;17847;31.524;74.366;2023-10-13T03:02:24;98854.38;;;25.69;nan
31225;BME280;17847;31.524;74.366;2023-10-13T03:04:58;98855.44;;;25.73;nan
31225;BME280;17847;31.524;74.366;2023-10-13T03:07:38;98856.97;;;25.84;nan
31225;BME280;17847;31.524;74.366;2023-10-13T03:10:17;98858.31;;;25.82;nan
31225;BME280;17847;31.524;74.366;2023-10-13T03:12:48;98866.25;;;25.78;nan
31225;BME280;17847;31.524;74.366;2023-10-13T03:15:17;98859.59;;;25.89;nan
31225;BME280;17847;31.524;74.366;2023-10-13T03:17:49;98865.03;;;26.13;nan
31225;BME280;17847;31.524;74.366;2023-10-13T03:20:19;98868.69;;;26.27;nan
31225;BME280;17847;31.524;74.366;2023-10-13T03:22:55;98873.66;;;26.20;nan
31225;BME280;17847;31.524;74.366;2023-10-13T03:25:25;98876.09;;;26.22;nan
31225;BME280;17847;31.524;74.366;2023-10-13T03:27:58;98878.16;;;26.30;nan
31225;BME280;17847;31.524;74.366;2023-10-13T03:30:29;98887.66;;;26.32;nan
31225;BME280;17847;31.524;74.366;2023-10-13T03:33:05;98886.03;;;26.31;nan
31225;BME280;17847;31.524;74.366;2023-10-13T03:35:42;98890.31;;;26.38;nan
31225;BME280;17847;31.524;74.366;2023-10-13T03:38:14;98892.91;;;26.66;nan
31225;BME280;17847;31.524;74.366;2023-10-13T03:40:49;98892.09;;;26.66;nan
31225;BME280;17847;31.524;74.366;2023-10-13T03:43:39;98899.50;;;26.79;nan
31225;BME280;17847;31.524;74.366;2023-10-13T03:46:20;98903.44;;;27.10;nan
31225;BME280;17847;31.524;74.366;2023-10-13T03:48:50;98912.00;;;27.36;nan
31225;BME280;17847;31.524;74.366;2023-10-13T03:51:24;98911.63;;;27.61;nan
31225;BME280;17847;31.524;74.366;2023-10-13T03:54:00;98905.00;;;27.81;nan
31225;BME280;17847;31.524;74.366;2023-10-13T03:56:37;98906.47;;;27.60;nan
31225;BME280;17847;31.524;74.366;2023-10-13T03:59:10;98911.47;;;27.85;nan
31225;BME280;17847;31.524;74.366;2023-10-13T04:01:48;98919.50;;;28.36;nan
31225;BME280;17847;31.524;74.366;2023-10-13T04:04:20;98917.53;;;28.64;nan
31225;BME280;17847;31.524;74.366;2023-10-13T04:07:18;98924.41;;;28.89;nan
31225;BME280;17847;31.524;74.366;2023-10-13T04:10:07;98927.47;;;29.10;nan
31225;BME280;17847;31.524;74.366;2023-10-13T04:12:59;98926.38;;;29.47;nan
31225;BME280;17847;31.524;74.366;2023-10-13T04:15:47;98931.44;;;29.26;nan
31225;BME280;17847;31.524;74.366;2023-10-13T04:18:35;98934.13;;;29.84;nan
31225;BME280;17847;31.524;74.366;2023-10-13T04:21:22;98935.00;;;29.93;nan
31225;BME280;17847;31.524;74.366;2023-10-13T04:24:11;98937.75;;;30.32;nan
31225;BME280;17847;31.524;74.366;2023-10-13T04:26:51;98939.47;;;30.51;nan
31225;BME280;17847;31.524;74.366;2023-10-13T04:29:40;98937.47;;;30.43;nan
31225;BME280;17847;31.524;74.366;2023-10-13T04:32:19;98933.97;;;30.11;nan
31225;BME280;17847;31.524;74.366;2023-10-13T04:34:59;98935.81;;;30.81;nan
31225;BME280;17847;31.524;74.366;2023-10-13T04:37:39;98942.47;;;30.89;nan
31225;BME280;17847;31.524;74.366;2023-10-13T04:40:18;98943.16;;;31.46;nan
31225;BME280;17847;31.524;74.366;2023-10-13T04:42:54;98942.31;;;31.54;nan
31225;BME280;17847;31.524;74.366;2023-10-13T04:45:27;98946.16;;;30.93;nan
31225;BME280;17847;31.524;74.366;2023-10-13T04:48:16;98947.13;;;31.74;nan
31225;BME280;17847;31.524;74.366;2023-10-13T04:50:48;98952.16;;;31.20;nan
31225;BME280;17847;31.524;74.366;2023-10-13T04:53:41;98950.66;;;31.83;nan
31225;BME280;17847;31.524;74.366;2023-10-13T04:56:33;98957.25;;;31.99;nan
31225;BME280;17847;31.524;74.366;2023-10-13T04:59:20;98948.38;;;32.02;nan
31225;BME280;17847;31.524;74.366;2023-10-13T05:02:06;98950.81;;;31.87;nan
31225;BME280;17847;31.524;74.366;2023-10-13T05:04:54;98952.72;;;32.50;nan
31225;BME280;17847;31.524;74.366;2023-10-13T05:07:35;98946.84;;;32.69;nan
31225;BME280;17847;31.524;74.366;2023-10-13T05:10:23;98944.47;;;32.50;nan
31225;BME280;17847;31.524;74.366;2023-10-13T05:13:11;98942.66;;;32.63;nan
31225;BME280;17847;31.524;74.366;2023-10-13T05:15:59;98945.66;;;32.99;nan
31225;BME280;17847;31.524;74.366;2023-10-13T05:18:47;98943.66;;;32.87;nan
31225;BME280;17847;31.524;74.366;2023-10-13T05:21:34;98939.75;;;32.88;nan
31225;BME280;17847;31.524;74.366;2023-10-13T05:24:24;98931.94;;;32.99;nan
31225;BME280;17847;31.524;74.366;2023-10-13T05:27:11;98932.94;;;32.94;nan
31225;BME280;17847;31.524;74.366;2023-10-13T05:29:59;98928.31;;;32.86;nan
31225;BME280;17847;31.524;74.366;2023-10-13T05:32:46;98927.75;;;33.22;nan
31225;BME280;17847;31.524;74.366;2023-10-13T05:35:34;98926.50;;;33.53;nan
31225;BME280;17847;31.524;74.366;2023-10-13T05:38:21;98923.75;;;33.11;nan
31225;BME280;17847;31.524;74.366;2023-10-13T05:41:09;98914.59;;;32.66;nan
31225;BME280;17847;31.524;74.366;2023-10-13T05:43:57;98907.75;;;32.72;nan
31225;BME280;17847;31.524;74.366;2023-10-13T05:46:44;98909.91;;;33.08;nan
31225;BME280;17847;31.524;74.366;2023-10-13T05:49:40;98906.41;;;33.28;nan
31225;BME280;17847;31.524;74.366;2023-10-13T05:52:21;98905.78;;;33.02;nan
31225;BME280;17847;31.524;74.366;2023-10-13T05:55:09;98901.09;;;32.52;nan
31225;BME280;17847;31.524;74.366;2023-10-13T05:57:57;98896.47;;;32.44;nan
31225;BME280;17847;31.524;74.366;2023-10-13T06:00:44;98895.06;;;33.09;nan
31225;BME280;17847;31.524;74.366;2023-10-13T06:03:32;98889.88;;;31.98;nan
31225;BME280;17847;31.524;74.366;2023-10-13T06:06:20;98893.63;;;32.61;nan
31225;BME280;17847;31.524;74.366;2023-10-13T06:09:08;98886.81;;;32.38;nan
31225;BME280;17847;31.524;74.366;2023-10-13T06:11:56;98888.69;;;32.46;nan
31225;BME280;17847;31.524;74.366;2023-10-13T06:14:46;98888.13;;;32.32;nan
31225;BME280;17847;31.524;74.366;2023-10-13T06:17:34;98892.66;;;32.66;nan
31225;BME280;17847;31.524;74.366;2023-10-13T06:20:22;98884.47;;;32.78;nan
31225;BME280;17847;31.524;74.366;2023-10-13T06:23:09;98882.78;;;32.35;nan
31225;BME280;17847;31.524;74.366;2023-10-13T06:25:57;98876.41;;;32.52;nan
31225;BME280;17847;31.524;74.366;2023-10-13T06:28:44;98879.00;;;32.78;nan
31225;BME280;17847;31.524;74.366;2023-10-13T06:31:14;98868.28;;;32.64;nan
31225;BME280;17847;31.524;74.366;2023-10-13T06:33:58;98862.78;;;32.64;nan
31225;BME280;17847;31.524;74.366;2023-10-13T06:36:27;98864.38;;;32.36;nan
31225;BME280;17847;31.524;74.366;2023-10-13T06:38:56;98865.00;;;32.12;nan
31225;BME280;17847;31.524;74.366;2023-10-13T06:41:46;98861.75;;;32.19;nan
31225;BME280;17847;31.524;74.366;2023-10-13T06:44:16;98859.94;;;32.23;nan
31225;BME280;17847;31.524;74.366;2023-10-13T06:46:45;98849.38;;;32.13;nan
31225;BME280;17847;31.524;74.366;2023-10-13T06:49:18;98846.47;;;32.00;nan
31225;BME280;17847;31.524;74.366;2023-10-13T06:51:48;98840.88;;;32.35;nan
31225;BME280;17847;31.524;74.366;2023-10-13T06:54:18;98838.72;;;31.73;nan
31225;BME280;17847;31.524;74.366;2023-10-13T06:56:49;98834.25;;;31.98;nan
31225;BME280;17847;31.524;74.366;2023-10-13T06:59:21;98837.94;;;32.11;nan
31225;BME280;17847;31.524;74.366;2023-10-13T07:01:55;98832.28;;;32.07;nan
31225;BME280;17847;31.524;74.366;2023-10-13T07:04:48;98831.78;;;32.14;nan
31225;BME280;17847;31.524;74.366;2023-10-13T07:07:19;98828.84;;;32.19;nan
31225;BME280;17847;31.524;74.366;2023-10-13T07:09:51;98831.47;;;32.15;nan
31225;BME280;17847;31.524;74.366;2023-10-13T07:12:26;98819.75;;;31.97;nan
31225;BME280;17847;31.524;74.366;2023-10-13T07:14:56;98814.75;;;31.99;nan
31225;BME280;17847;31.524;74.366;2023-10-13T07:17:39;98807.09;;;32.14;nan
31225;BME280;17847;31.524;74.366;2023-10-13T07:20:10;98800.00;;;32.21;nan
31225;BME280;17847;31.524;74.366;2023-10-13T07:23:05;98800.38;;;32.02;nan
31225;BME280;17847;31.524;74.366;2023-10-13T07:25:35;98804.38;;;32.05;nan
31225;BME280;17847;31.524;74.366;2023-10-13T07:28:07;98787.50;;;31.65;nan
31225;BME280;17847;31.524;74.366;2023-10-13T07:30:39;98788.66;;;31.93;nan
31225;BME280;17847;31.524;74.366;2023-10-13T07:33:17;98779.13;;;31.99;nan
31225;BME280;17847;31.524;74.366;2023-10-13T07:36:01;98776.94;;;31.84;nan
31225;BME280;17847;31.524;74.366;2023-10-13T07:38:41;98772.59;;;31.83;nan
31225;BME280;17847;31.524;74.366;2023-10-13T07:41:11;98762.06;;;31.94;nan
31225;BME280;17847;31.524;74.366;2023-10-13T07:43:44;98772.03;;;31.98;nan
31225;BME280;17847;31.524;74.366;2023-10-13T07:46:13;98760.59;;;31.96;nan
31225;BME280;17847;31.524;74.366;2023-10-13T07:48:43;98761.06;;;31.98;nan
31225;BME280;17847;31.524;74.366;2023-10-13T07:51:14;98757.03;;;31.96;nan
31225;BME280;17847;31.524;74.366;2023-10-13T07:53:47;98751.63;;;31.87;nan
31225;BME280;17847;31.524;74.366;2023-10-13T07:56:18;98744.94;;;31.76;nan
31225;BME280;17847;31.524;74.366;2023-10-13T07:58:47;98743.88;;;31.60;nan
31225;BME280;17847;31.524;74.366;2023-10-13T08:01:32;98746.94;;;31.58;nan
31225;BME280;17847;31.524;74.366;2023-10-13T08:04:03;98728.00;;;31.74;nan
31225;BME280;17847;31.524;74.366;2023-10-13T08:06:43;98729.16;;;31.73;nan
31225;BME280;17847;31.524;74.366;2023-10-13T08:09:15;98734.00;;;31.68;nan
31225;BME280;17847;31.524;74.366;2023-10-13T08:12:09;98716.59;;;31.72;nan
31225;BME280;17847;31.524;74.366;2023-10-13T08:14:41;98712.56;;;31.70;nan
31225;BME280;17847;31.524;74.366;2023-10-13T08:17:12;98711.31;;;31.67;nan
31225;BME280;17847;31.524;74.366;2023-10-13T08:19:42;98706.13;;;31.65;nan
31225;BME280;17847;31.524;74.366;2023-10-13T08:22:15;98708.63;;;31.50;nan
31225;BME280;17847;31.524;74.366;2023-10-13T08:24:48;98705.03;;;31.29;nan
31225;BME280;17847;31.524;74.366;2023-10-13T08:27:21;98702.41;;;31.32;nan
31225;BME280;17847;31.524;74.366;2023-10-13T08:30:06;98697.84;;;31.45;nan
31225;BME280;17847;31.524;74.366;2023-10-13T08:32:54;98697.88;;;31.36;nan
31225;BME280;17847;31.524;74.366;2023-10-13T08:35:24;98689.81;;;31.40;nan
31225;BME280;17847;31.524;74.366;2023-10-13T08:38:01;98680.16;;;31.42;nan
31225;BME280;17847;31.524;74.366;2023-10-13T08:40:50;98675.47;;;31.43;nan
31225;BME280;17847;31.524;74.366;2023-10-13T08:44:07;98669.34;;;31.46;nan
31225;BME280;17847;31.524;74.366;2023-10-13T08:46:38;98666.88;;;31.53;nan
31225;BME280;17847;31.524;74.366;2023-10-13T08:49:28;98667.56;;;31.50;nan
31225;BME280;17847;31.524;74.366;2023-10-13T08:51:59;98658.53;;;31.49;nan
31225;BME280;17847;31.524;74.366;2023-10-13T08:54:56;98654.50;;;31.47;nan
31225;BME280;17847;31.524;74.366;2023-10-13T08:57:44;98651.75;;;31.47;nan
31225;BME280;17847;31.524;74.366;2023-10-13T09:00:18;98647.75;;;31.44;nan
31225;BME280;17847;31.524;74.366;2023-10-13T09:03:18;98648.09;;;31.43;nan
31225;BME280;17847;31.524;74.366;2023-10-13T09:06:20;98640.84;;;31.38;nan
31225;BME280;17847;31.524;74.366;2023-10-13T09:08:51;98636.34;;;31.42;nan
31225;BME280;17847;31.524;74.366;2023-10-13T09:11:50;98637.34;;;31.38;nan
31225;BME280;17847;31.524;74.366;2023-10-13T09:14:22;98630.25;;;31.37;nan
31225;BME280;17847;31.524;74.366;2023-10-13T09:17:07;98626.09;;;31.31;nan
31225;BME280;17847;31.524;74.366;2023-10-13T09:19:48;98625.63;;;31.29;nan
31225;BME280;17847;31.524;74.366;2023-10-13T09:22:21;98622.59;;;31.21;nan
31225;BME280;17847;31.524;74.366;2023-10-13T09:24:58;98611.97;;;31.29;nan
31225;BME280;17847;31.524;74.366;2023-10-13T09:27:30;98614.22;;;31.27;nan
31225;BME280;17847;31.524;74.366;2023-10-13T09:30:03;98609.53;;;31.27;nan
31225;BME280;17847;31.524;74.366;2023-10-13T09:33:01;98604.53;;;31.29;nan
31225;BME280;17847;31.524;74.366;2023-10-13T09:35:31;98600.53;;;31.27;nan
31225;BME280;17847;31.524;74.366;2023-10-13T09:38:03;98600.25;;;31.19;nan
31225;BME280;17847;31.524;74.366;2023-10-13T09:40:33;98600.88;;;31.16;nan
31225;BME280;17847;31.524;74.366;2023-10-13T09:43:02;98596.34;;;31.20;nan
31225;BME280;17847;31.524;74.366;2023-10-13T09:45:37;98590.44;;;31.18;nan
31225;BME280;17847;31.524;74.366;2023-10-13T09:48:12;98581.78;;;31.08;nan
31225;BME280;17847;31.524;74.366;2023-10-13T09:50:59;98580.03;;;31.03;nan
31225;BME280;17847;31.524;74.366;2023-10-13T09:53:31;98580.53;;;31.05;nan
31225;BME280;17847;31.524;74.366;2023-10-13T09:56:07;98574.38;;;31.08;nan
31225;BME280;17847;31.524;74.366;2023-10-13T09:59:19;98565.38;;;31.08;nan
31225;BME280;17847;31.524;74.366;2023-10-13T10:01:55;98570.03;;;31.07;nan
31225;BME280;17847;31.524;74.366;2023-10-13T10:04:30;98563.97;;;31.02;nan
31225;BME280;17847;31.524;74.366;2023-10-13T10:07:04;98555.91;;;30.97;nan
31225;BME280;17847;31.524;74.366;2023-10-13T10:09:34;98558.69;;;30.88;nan
31225;BME280;17847;31.524;74.366;2023-10-13T10:12:42;98553.22;;;30.88;nan
31225;BME280;17847;31.524;74.366;2023-10-13T10:15:34;98557.34;;;30.94;nan
31225;BME280;17847;31.524;74.366;2023-10-13T10:18:04;98555.94;;;30.88;nan
31225;BME280;17847;31.524;74.366;2023-10-13T10:20:37;98550.84;;;30.78;nan
31225;BME280;17847;31.524;74.366;2023-10-13T10:23:25;98542.47;;;30.83;nan
31225;BME280;17847;31.524;74.366;2023-10-13T10:25:56;98541.84;;;30.77;nan
31225;BME280;17847;31.524;74.366;2023-10-13T10:28:41;98539.41;;;30.76;nan
31225;BME280;17847;31.524;74.366;2023-10-13T10:31:12;98541.88;;;30.69;nan
31225;BME280;17847;31.524;74.366;2023-10-13T10:33:43;98527.56;;;30.63;nan
31225;BME280;17847;31.524;74.366;2023-10-13T10:36:14;98544.31;;;30.62;nan
31225;BME280;17847;31.524;74.366;2023-10-13T10:38:53;98535.81;;;30.55;nan
31225;BME280;17847;31.524;74.366;2023-10-13T10:41:32;98530.50;;;30.50;nan
31225;BME280;17847;31.524;74.366;2023-10-13T10:44:20;98526.03;;;30.45;nan
31225;BME280;17847;31.524;74.366;2023-10-13T10:47:16;98533.72;;;30.43;nan
31225;BME280;17847;31.524;74.366;2023-10-13T10:50:09;98532.78;;;30.39;nan
31225;BME280;17847;31.524;74.366;2023-10-13T10:52:59;98526.38;;;30.35;nan
31225;BME280;17847;31.524;74.366;2023-10-13T10:55:28;98531.34;;;30.33;nan
31225;BME280;17847;31.524;74.366;2023-10-13T10:58:00;98526.84;;;30.28;nan
31225;BME280;17847;31.524;74.366;2023-10-13T11:00:35;98524.63;;;30.22;nan
31225;BME280;17847;31.524;74.366;2023-10-13T11:03:15;98530.56;;;30.24;nan
31225;BME280;17847;31.524;74.366;2023-10-13T11:05:48;98525.94;;;30.16;nan
31225;BME280;17847;31.524;74.366;2023-10-13T11:08:25;98522.91;;;30.09;nan
31225;BME280;17847;31.524;74.366;2023-10-13T11:11:00;98520.97;;;30.01;nan
31225;BME280;17847;31.524;74.366;2023-10-13T11:13:45;98512.31;;;29.99;nan
31225;BME280;17847;31.524;74.366;2023-10-13T11:16:23;98514.06;;;29.95;nan
31225;BME280;17847;31.524;74.366;2023-10-13T11:19:05;98515.19;;;29.94;nan
31225;BME280;17847;31.524;74.366;2023-10-13T11:21:35;98508.91;;;29.84;nan
31225;BME280;17847;31.524;74.366;2023-10-13T11:24:06;98509.72;;;29.85;nan
31225;BME280;17847;31.524;74.366;2023-10-13T11:26:40;98506.34;;;29.79;nan
31225;BME280;17847;31.524;74.366;2023-10-13T11:29:19;98499.47;;;29.73;nan
31225;BME280;17847;31.524;74.366;2023-10-13T11:31:59;98506.84;;;29.64;nan
31225;BME280;17847;31.524;74.366;2023-10-13T11:34:29;98509.09;;;29.62;nan
31225;BME280;17847;31.524;74.366;2023-10-13T11:37:08;98512.31;;;29.56;nan
31225;BME280;17847;31.524;74.366;2023-10-13T11:39:55;98511.97;;;29.49;nan
31225;BME280;17847;31.524;74.366;2023-10-13T11:42:24;98512.63;;;29.45;nan
31225;BME280;17847;31.524;74.366;2023-10-13T11:44:56;98514.22;;;29.38;nan
31225;BME280;17847;31.524;74.366;2023-10-13T11:47:45;98512.28;;;29.30;nan
31225;BME280;17847;31.524;74.366;2023-10-13T11:50:19;98507.91;;;29.12;nan
31225;BME280;17847;31.524;74.366;2023-10-13T11:53:01;98513.84;;;29.14;nan
31225;BME280;17847;31.524;74.366;2023-10-13T11:55:30;98507.72;;;29.08;nan
31225;BME280;17847;31.524;74.366;2023-10-13T11:58:00;98506.47;;;29.14;nan
31225;BME280;17847;31.524;74.366;2023-10-13T12:00:29;98506.44;;;29.06;nan
31225;BME280;17847;31.524;74.366;2023-10-13T12:03:19;98518.47;;;29.05;nan
31225;BME280;17847;31.524;74.366;2023-10-13T12:06:09;98518.59;;;28.99;nan
31225;BME280;17847;31.524;74.366;2023-10-13T12:08:56;98516.81;;;28.86;nan
31225;BME280;17847;31.524;74.366;2023-10-13T12:11:40;98517.91;;;28.77;nan
31225;BME280;17847;31.524;74.366;2023-10-13T12:14:11;98519.97;;;28.71;nan
31225;BME280;17847;31.524;74.366;2023-10-13T12:16:54;98516.06;;;28.64;nan
31225;BME280;17847;31.524;74.366;2023-10-13T12:19:25;98528.56;;;28.65;nan
31225;BME280;17847;31.524;74.366;2023-10-13T12:21:57;98524.88;;;28.61;nan
31225;BME280;17847;31.524;74.366;2023-10-13T12:24:32;98524.38;;;28.50;nan
31225;BME280;17847;31.524;74.366;2023-10-13T12:27:08;98528.19;;;28.49;nan
31225;BME280;17847;31.524;74.366;2023-10-13T12:29:52;98526.19;;;28.32;nan
31225;BME280;17847;31.524;74.366;2023-10-13T12:32:22;98529.41;;;28.34;nan
31225;BME280;17847;31.524;74.366;2023-10-13T12:34:54;98532.13;;;28.34;nan
31225;BME280;17847;31.524;74.366;2023-10-13T12:37:46;98533.72;;;28.35;nan
31225;BME280;17847;31.524;74.366;2023-10-13T12:40:18;98526.13;;;28.24;nan
31225;BME280;17847;31.524;74.366;2023-10-13T12:43:06;98533.94;;;28.17;nan
31225;BME280;17847;31.524;74.366;2023-10-13T12:45:53;98541.06;;;28.26;nan
31225;BME280;17847;31.524;74.366;2023-10-13T12:48:44;98535.06;;;28.16;nan
31225;BME280;17847;31.524;74.366;2023-10-13T12:51:33;98548.56;;;28.07;nan
31225;BME280;17847;31.524;74.366;2023-10-13T12:54:02;98549.38;;;28.07;nan
31225;BME280;17847;31.524;74.366;2023-10-13T12:56:35;98547.13;;;28.01;nan
31225;BME280;17847;31.524;74.366;2023-10-13T12:59:10;98547.41;;;27.99;nan
31225;BME280;17847;31.524;74.366;2023-10-13T13:01:42;98555.59;;;27.99;nan
31225;BME280;17847;31.524;74.366;2023-10-13T13:04:11;98551.63;;;28.05;nan
31225;BME280;17847;31.524;74.366;2023-10-13T13:06:48;98564.69;;;27.95;nan
31225;BME280;17847;31.524;74.366;2023-10-13T13:09:18;98564.06;;;27.98;nan
31225;BME280;17847;31.524;74.366;2023-10-13T13:11:55;98568.31;;;27.90;nan
31225;BME280;17847;31.524;74.366;2023-10-13T13:14:30;98565.53;;;27.82;nan
31225;BME280;17847;31.524;74.366;2023-10-13T13:17:03;98573.19;;;27.80;nan
31225;BME280;17847;31.524;74.366;2023-10-13T13:19:37;98565.94;;;27.75;nan
31225;BME280;17847;31.524;74.366;2023-10-13T13:22:09;98579.66;;;27.84;nan
31225;BME280;17847;31.524;74.366;2023-10-13T13:24:42;98575.44;;;27.78;nan
31225;BME280;17847;31.524;74.366;2023-10-13T13:27:16;98578.09;;;27.69;nan
31225;BME280;17847;31.524;74.366;2023-10-13T13:29:53;98577.47;;;27.72;nan
31225;BME280;17847;31.524;74.366;2023-10-13T13:32:27;98578.09;;;27.69;nan
31225;BME280;17847;31.524;74.366;2023-10-13T13:34:58;98587.44;;;27.77;nan
31225;BME280;17847;31.524;74.366;2023-10-13T13:37:34;98588.66;;;27.70;nan
31225;BME280;17847;31.524;74.366;2023-10-13T13:40:06;98586.94;;;27.75;nan
31225;BME280;17847;31.524;74.366;2023-10-13T13:42:46;98598.25;;;27.68;nan
31225;BME280;17847;31.524;74.366;2023-10-13T13:45:17;98590.63;;;27.56;nan
31225;BME280;17847;31.524;74.366;2023-10-13T13:48:00;98591.44;;;27.57;nan
31225;BME280;17847;31.524;74.366;2023-10-13T13:50:37;98593.72;;;27.63;nan
31225;BME280;17847;31.524;74.366;2023-10-13T13:53:10;98594.63;;;27.59;nan
31225;BME280;17847;31.524;74.366;2023-10-13T13:55:40;98595.44;;;27.59;nan
31225;BME280;17847;31.524;74.366;2023-10-13T13:58:10;98604.22;;;27.56;nan
31225;BME280;17847;31.524;74.366;2023-10-13T14:00:41;98598.69;;;27.48;nan
31225;BME280;17847;31.524;74.366;2023-10-13T14:03:20;98602.59;;;27.42;nan
31225;BME280;17847;31.524;74.366;2023-10-13T14:06:19;98607.75;;;27.43;nan
31225;BME280;17847;31.524;74.366;2023-10-13T14:09:00;98606.13;;;27.42;nan